createdAt,value
2018-10-21T00:00:51.448Z,49.5
2018-10-21T00:02:03.547Z,49.5
2018-10-21T00:03:15.831Z,49.5
2018-10-21T00:04:28.014Z,49.5
2018-10-21T00:05:40.154Z,49.5
2018-10-21T00:06:52.427Z,49.5
2018-10-21T00:08:04.744Z,49.5
2018-10-21T00:09:16.832Z,49.5
2018-10-21T00:10:29.085Z,49.5
2018-10-21T00:11:41.261Z,49.5
2018-10-21T00:12:53.291Z,49.5
2018-10-21T00:14:05.576Z,49.5
2018-10-21T00:15:17.762Z,49.5
2018-10-21T00:16:29.967Z,49.5
2018-10-21T00:17:42.072Z,49.5
2018-10-21T00:18:54.348Z,49.5
2018-10-21T00:20:06.531Z,49.5
2018-10-21T00:21:18.730Z,49.5
2018-10-21T00:22:30.937Z,49.5
2018-10-21T00:23:43.035Z,49.5
2018-10-21T00:24:55.336Z,49.5
2018-10-21T00:26:07.442Z,49.5
2018-10-21T00:27:19.617Z,49.5
2018-10-21T00:28:31.946Z,49.5
2018-10-21T00:29:44.031Z,49.5
2018-10-21T00:30:56.315Z,49.5
2018-10-21T00:32:08.399Z,49.5
2018-10-21T00:33:20.668Z,49.5
2018-10-21T00:34:32.788Z,49.5
2018-10-21T00:35:45.047Z,49.5
2018-10-21T00:36:57.173Z,49.5
2018-10-21T00:38:09.361Z,49.5
2018-10-21T00:39:21.568Z,49.5
2018-10-21T00:40:33.751Z,49.5
2018-10-21T00:41:45.953Z,49.5
2018-10-21T00:42:58.219Z,49.5
2018-10-21T00:44:10.433Z,49.5
2018-10-21T00:45:22.529Z,49.5
2018-10-21T00:46:34.808Z,49.5
2018-10-21T00:47:46.913Z,49.5
2018-10-21T00:48:59.182Z,49.5
2018-10-21T00:50:11.365Z,49.5
2018-10-21T00:51:23.498Z,49.5
2018-10-21T00:52:35.758Z,49.5
2018-10-21T00:53:47.956Z,49.5
2018-10-21T00:55:00.075Z,49.5
2018-10-21T00:56:12.279Z,49.5
2018-10-21T00:57:24.456Z,49.5
2018-10-21T00:58:36.727Z,49.5
2018-10-21T00:59:48.918Z,49.5
2018-10-21T01:01:01.038Z,49.5
2018-10-21T01:02:13.241Z,49.5
2018-10-21T01:03:25.430Z,49.5
2018-10-21T01:04:37.618Z,49.5
2018-10-21T01:05:49.988Z,49.5
2018-10-21T01:07:02.023Z,49.5
2018-10-21T01:08:14.273Z,49.5
2018-10-21T01:09:26.406Z,49.5
2018-10-21T01:10:38.674Z,49.5
2018-10-21T01:11:50.883Z,49.5
2018-10-21T01:13:02.981Z,49.5
2018-10-21T01:14:15.244Z,49.5
2018-10-21T01:15:27.455Z,49.5
2018-10-21T01:16:39.567Z,49.5
2018-10-21T01:17:51.828Z,49.5
2018-10-21T01:19:03.946Z,49.5
2018-10-21T01:20:16.215Z,49.5
2018-10-21T01:21:28.406Z,49.6
2018-10-21T01:22:40.597Z,49.5
2018-10-21T01:23:52.797Z,49.5
2018-10-21T01:25:04.989Z,49.6
2018-10-21T01:26:17.218Z,49.6
2018-10-21T01:27:29.310Z,49.6
2018-10-21T01:28:41.495Z,49.6
2018-10-21T01:29:53.759Z,49.5
2018-10-21T01:31:05.973Z,49.6
2018-10-21T01:32:18.104Z,49.6
2018-10-21T01:33:30.344Z,49.6
2018-10-21T01:34:42.701Z,49.6
2018-10-21T01:35:54.732Z,49.6
2018-10-21T01:37:06.923Z,49.6
2018-10-21T01:38:19.264Z,49.6
2018-10-21T01:39:31.242Z,49.6
2018-10-21T01:40:43.436Z,49.6
2018-10-21T01:41:55.716Z,49.6
2018-10-21T01:43:07.894Z,49.6
2018-10-21T01:44:20.085Z,49.6
2018-10-21T01:45:32.409Z,49.6
2018-10-21T01:46:44.592Z,49.6
2018-10-21T01:47:56.601Z,49.6
2018-10-21T01:49:08.897Z,49.6
2018-10-21T01:50:21.057Z,49.6
2018-10-21T01:51:33.273Z,49.6
2018-10-21T01:52:45.451Z,49.6
2018-10-21T01:53:57.582Z,49.6
2018-10-21T01:55:09.838Z,49.6
2018-10-21T01:56:21.958Z,49.6
2018-10-21T01:57:34.156Z,49.6
2018-10-21T01:58:46.429Z,49.6
2018-10-21T01:59:58.773Z,49.6
2018-10-21T02:01:10.742Z,49.6
2018-10-21T02:02:22.932Z,49.6
2018-10-21T02:03:35.216Z,49.6
2018-10-21T02:04:47.396Z,49.6
2018-10-21T02:05:59.594Z,49.6
2018-10-21T02:07:11.785Z,49.6
2018-10-21T02:08:23.988Z,49.6
2018-10-21T02:09:36.104Z,49.6
2018-10-21T02:10:48.308Z,49.6
2018-10-21T02:12:00.565Z,49.6
2018-10-21T02:13:12.685Z,49.6
2018-10-21T02:14:24.883Z,49.6
2018-10-21T02:15:37.152Z,49.6
2018-10-21T02:16:49.353Z,49.6
2018-10-21T02:18:01.563Z,49.6
2018-10-21T02:19:13.666Z,49.6
2018-10-21T02:20:25.944Z,49.6
2018-10-21T02:21:38.129Z,49.6
2018-10-21T02:22:50.325Z,49.6
2018-10-21T02:24:02.450Z,49.6
2018-10-21T02:25:14.710Z,49.6
2018-10-21T02:26:26.849Z,49.6
2018-10-21T02:27:39.176Z,49.6
2018-10-21T02:28:51.301Z,49.6
2018-10-21T02:30:03.498Z,49.6
2018-10-21T02:31:15.797Z,49.6
2018-10-21T02:32:27.882Z,49.6
2018-10-21T02:33:40.086Z,49.6
2018-10-21T02:34:52.279Z,49.6
2018-10-21T02:36:04.403Z,49.6
2018-10-21T02:37:16.595Z,49.6
2018-10-21T02:38:28.868Z,49.6
2018-10-21T02:39:41.071Z,49.6
2018-10-21T02:40:53.257Z,49.6
2018-10-21T02:42:05.464Z,49.7
2018-10-21T02:43:17.670Z,49.6
2018-10-21T02:44:29.768Z,49.6
2018-10-21T02:45:42.360Z,49.7
2018-10-21T02:46:54.229Z,49.7
2018-10-21T02:48:06.346Z,49.7
2018-10-21T02:49:18.622Z,49.7
2018-10-21T02:50:30.821Z,49.7
2018-10-21T02:51:43.009Z,49.7
2018-10-21T02:52:55.215Z,49.7
2018-10-21T03:10:58.150Z,49.7
2018-10-21T03:12:10.339Z,49.7
2018-10-21T03:13:22.529Z,49.7
2018-10-21T03:14:34.720Z,49.7
2018-10-21T03:15:46.944Z,49.7
2018-10-21T03:17:01.933Z,49.7
2018-10-21T03:18:11.299Z,49.7
2018-10-21T03:19:23.428Z,49.7
2018-10-21T03:20:35.654Z,49.7
2018-10-21T03:21:47.948Z,49.7
2018-10-21T03:23:00.016Z,49.7
2018-10-21T03:24:12.293Z,49.7
2018-10-21T03:25:24.474Z,49.7
2018-10-21T03:26:36.604Z,49.7
2018-10-21T03:27:48.792Z,49.7
2018-10-21T03:29:01.065Z,49.7
2018-10-21T03:30:13.253Z,49.7
2018-10-21T03:31:25.395Z,49.7
2018-10-21T03:32:37.647Z,49.7
2018-10-21T03:33:49.857Z,49.7
2018-10-21T03:35:02.045Z,49.7
2018-10-21T03:36:14.165Z,49.7
2018-10-21T03:37:26.435Z,49.7
2018-10-21T03:38:38.555Z,49.7
2018-10-21T03:39:50.823Z,49.7
2018-10-21T03:41:03.024Z,49.7
2018-10-21T03:42:15.211Z,49.7
2018-10-21T03:43:27.426Z,49.7
2018-10-21T03:44:39.532Z,49.7
2018-10-21T03:45:51.745Z,49.7
2018-10-21T03:47:04.022Z,49.7
2018-10-21T03:48:16.196Z,49.7
2018-10-21T03:49:28.389Z,49.7
2018-10-21T03:50:40.581Z,49.7
2018-10-21T03:51:52.774Z,49.7
2018-10-21T03:53:04.896Z,49.7
2018-10-21T03:54:17.185Z,49.7
2018-10-21T03:55:29.353Z,49.7
2018-10-21T03:56:41.486Z,49.7
2018-10-21T03:57:53.746Z,49.7
2018-10-21T03:59:05.967Z,49.7
2018-10-21T04:00:18.154Z,49.7
2018-10-21T04:01:30.335Z,49.7
2018-10-21T04:02:42.603Z,49.7
2018-10-21T04:03:54.657Z,49.7
2018-10-21T04:05:06.917Z,49.7
2018-10-21T04:06:19.047Z,49.7
2018-10-21T04:07:31.349Z,49.7
2018-10-21T04:08:43.439Z,49.7
2018-10-21T04:09:55.694Z,49.7
2018-10-21T04:11:07.825Z,49.7
2018-10-21T04:12:20.090Z,49.7
2018-10-21T04:13:32.218Z,49.7
2018-10-21T04:14:44.479Z,49.7
2018-10-21T04:15:56.683Z,49.7
2018-10-21T04:17:08.889Z,49.7
2018-10-21T04:18:21.101Z,49.7
2018-10-21T04:19:33.288Z,49.7
2018-10-21T04:20:45.471Z,49.7
2018-10-21T04:21:57.655Z,49.7
2018-10-21T04:23:09.851Z,49.7
2018-10-21T04:24:21.987Z,49.7
2018-10-21T04:25:34.264Z,49.7
2018-10-21T04:26:46.442Z,49.7
2018-10-21T04:27:58.563Z,49.7
2018-10-21T04:29:10.826Z,49.7
2018-10-21T04:30:23.058Z,49.7
2018-10-21T04:31:35.249Z,49.7
2018-10-21T04:32:47.420Z,49.8
2018-10-21T04:33:59.622Z,49.7
2018-10-21T04:35:11.808Z,49.8
2018-10-21T04:36:23.924Z,49.7
2018-10-21T04:37:36.120Z,49.7
2018-10-21T04:38:48.389Z,49.7
2018-10-21T04:40:00.604Z,49.7
2018-10-21T04:41:12.721Z,49.7
2018-10-21T04:42:24.970Z,49.8
2018-10-21T04:43:37.098Z,49.7
2018-10-21T04:44:49.300Z,49.7
2018-10-21T04:46:01.578Z,49.8
2018-10-21T04:47:13.683Z,49.7
2018-10-21T04:48:25.956Z,49.8
2018-10-21T04:49:38.143Z,49.7
2018-10-21T04:50:50.343Z,49.8
2018-10-21T04:52:02.540Z,49.8
2018-10-21T04:53:14.703Z,49.8
2018-10-21T04:54:26.923Z,49.8
2018-10-21T04:55:39.054Z,49.8
2018-10-21T04:56:51.245Z,49.8
2018-10-21T04:58:03.444Z,49.8
2018-10-21T04:59:15.753Z,49.8
2018-10-21T05:00:27.934Z,49.8
2018-10-21T05:01:40.032Z,49.8
2018-10-21T05:02:52.465Z,49.8
2018-10-21T05:04:04.420Z,49.8
2018-10-21T05:05:16.615Z,49.8
2018-10-21T05:06:28.881Z,49.8
2018-10-21T05:07:41.099Z,49.8
2018-10-21T05:08:53.273Z,49.8
2018-10-21T05:10:05.470Z,49.8
2018-10-21T05:11:17.590Z,49.8
2018-10-21T05:12:29.861Z,49.8
2018-10-21T05:13:42.016Z,49.8
2018-10-21T05:14:54.249Z,49.8
2018-10-21T05:16:06.380Z,49.8
2018-10-21T05:17:18.580Z,49.8
2018-10-21T05:18:30.837Z,49.8
2018-10-21T05:19:43.023Z,49.8
2018-10-21T05:20:55.225Z,49.8
2018-10-21T05:22:07.436Z,49.8
2018-10-21T05:23:19.616Z,49.8
2018-10-21T05:24:31.761Z,49.8
2018-10-21T05:25:44.013Z,49.8
2018-10-21T05:26:56.203Z,49.8
2018-10-21T05:28:08.400Z,49.8
2018-10-21T05:29:20.586Z,49.8
2018-10-21T05:30:32.721Z,49.8
2018-10-21T05:31:44.991Z,49.8
2018-10-21T05:32:57.108Z,49.8
2018-10-21T05:34:09.373Z,49.8
2018-10-21T05:35:21.500Z,49.8
2018-10-21T05:36:33.776Z,49.8
2018-10-21T05:37:45.885Z,49.8
2018-10-21T05:38:58.157Z,49.8
2018-10-21T05:40:10.356Z,49.8
2018-10-21T05:41:22.567Z,49.8
2018-10-21T05:42:34.669Z,49.8
2018-10-21T05:43:46.977Z,49.8
2018-10-21T05:44:59.062Z,49.8
2018-10-21T05:46:11.330Z,49.8
2018-10-21T05:47:25.005Z,49.8
2018-10-21T05:48:35.713Z,49.8
2018-10-21T05:49:47.914Z,49.8
2018-10-21T05:51:00.105Z,49.8
2018-10-21T05:52:12.232Z,49.8
2018-10-21T05:53:24.432Z,49.8
2018-10-21T05:54:36.614Z,49.8
2018-10-21T05:55:48.888Z,49.8
2018-10-21T05:57:01.077Z,49.8
2018-10-21T05:58:13.276Z,49.8
2018-10-21T05:59:25.474Z,49.8
2018-10-21T06:00:37.600Z,49.8
2018-10-21T06:01:49.785Z,49.8
2018-10-21T06:03:02.059Z,49.8
2018-10-21T06:04:14.178Z,49.8
2018-10-21T06:05:26.378Z,49.8
2018-10-21T06:06:38.631Z,49.8
2018-10-21T06:07:50.816Z,49.8
2018-10-21T06:09:03.035Z,49.8
2018-10-21T06:10:15.244Z,49.8
2018-10-21T06:11:27.352Z,49.8
2018-10-21T06:12:39.560Z,49.8
2018-10-21T06:13:51.758Z,49.8
2018-10-21T06:15:04.013Z,49.8
2018-10-21T06:16:16.139Z,49.8
2018-10-21T06:17:28.372Z,49.8
2018-10-21T06:18:40.639Z,49.8
2018-10-21T06:19:52.725Z,49.8
2018-10-21T06:21:04.912Z,49.8
2018-10-21T06:22:17.121Z,49.8
2018-10-21T06:23:29.369Z,49.8
2018-10-21T06:24:41.567Z,49.8
2018-10-21T06:25:53.704Z,49.8
2018-10-21T06:27:05.900Z,49.8
2018-10-21T06:28:18.200Z,49.8
2018-10-21T06:29:31.945Z,49.8
2018-10-21T06:30:42.548Z,49.8
2018-10-21T06:31:54.691Z,49.8
2018-10-21T06:33:06.958Z,49.8
2018-10-21T06:34:19.164Z,49.7
2018-10-21T06:35:31.331Z,49.8
2018-10-21T06:36:43.546Z,49.8
2018-10-21T06:37:55.737Z,49.8
2018-10-21T06:39:07.922Z,49.7
2018-10-21T06:40:20.116Z,49.7
2018-10-21T06:41:32.312Z,49.8
2018-10-21T06:42:44.504Z,49.7
2018-10-21T06:43:56.637Z,49.7
2018-10-21T06:45:08.827Z,49.7
2018-10-21T06:46:21.093Z,49.8
2018-10-21T06:47:33.213Z,49.8
2018-10-21T06:48:45.415Z,49.8
2018-10-21T06:49:57.677Z,49.8
2018-10-21T06:51:09.880Z,49.8
2018-10-21T06:52:21.993Z,49.7
2018-10-21T06:53:34.287Z,49.7
2018-10-21T06:54:46.620Z,49.7
2018-10-21T06:55:58.672Z,49.7
2018-10-21T06:57:10.781Z,49.7
2018-10-21T06:58:23.049Z,49.7
2018-10-21T06:59:35.244Z,49.7
2018-10-21T07:00:47.441Z,49.7
2018-10-21T07:01:59.637Z,49.7
2018-10-21T07:03:11.833Z,49.7
2018-10-21T07:04:23.962Z,49.7
2018-10-21T07:05:36.240Z,49.7
2018-10-21T07:06:48.350Z,49.7
2018-10-21T07:08:00.613Z,49.7
2018-10-21T07:09:12.820Z,49.7
2018-10-21T07:10:25.212Z,49.7
2018-10-21T07:11:37.219Z,49.7
2018-10-21T07:12:49.399Z,49.7
2018-10-21T07:14:01.624Z,49.7
2018-10-21T07:15:13.790Z,49.7
2018-10-21T07:16:26.007Z,49.7
2018-10-21T07:17:38.177Z,49.7
2018-10-21T07:18:50.304Z,49.7
2018-10-21T07:20:02.571Z,49.7
2018-10-21T07:21:14.698Z,49.7
2018-10-21T07:22:26.976Z,49.7
2018-10-21T07:23:39.088Z,49.7
2018-10-21T07:24:51.380Z,49.7
2018-10-21T07:26:03.554Z,49.7
2018-10-21T07:27:15.825Z,49.7
2018-10-21T07:28:27.872Z,49.7
2018-10-21T07:29:40.135Z,49.7
2018-10-21T07:30:52.338Z,49.7
2018-10-21T07:32:04.455Z,49.7
2018-10-21T07:33:16.835Z,49.7
2018-10-21T07:34:28.840Z,49.7
2018-10-21T07:35:41.041Z,49.7
2018-10-21T07:36:53.301Z,49.6
2018-10-21T07:38:05.435Z,49.6
2018-10-21T07:39:17.712Z,49.6
2018-10-21T07:40:29.964Z,49.7
2018-10-21T07:41:42.101Z,49.6
2018-10-21T07:42:54.288Z,49.6
2018-10-21T07:44:06.484Z,49.6
2018-10-21T07:45:18.604Z,49.6
2018-10-21T07:46:30.877Z,49.6
2018-10-21T07:47:43.075Z,49.6
2018-10-21T07:48:55.271Z,49.6
2018-10-21T07:50:07.387Z,49.6
2018-10-21T07:51:19.671Z,49.6
2018-10-21T07:52:31.878Z,49.6
2018-10-21T07:53:44.051Z,49.6
2018-10-21T07:54:56.239Z,49.6
2018-10-21T07:56:08.443Z,49.6
2018-10-21T07:57:20.559Z,49.6
2018-10-21T07:58:32.854Z,49.5
2018-10-21T07:59:44.951Z,49.6
2018-10-21T08:00:57.151Z,49.5
2018-10-21T08:02:09.460Z,49.5
2018-10-21T08:03:21.613Z,49.5
2018-10-21T08:04:33.776Z,49.5
2018-10-21T08:05:46.002Z,49.5
2018-10-21T08:06:58.125Z,49.5
2018-10-21T08:08:10.322Z,49.5
2018-10-21T08:09:22.608Z,49.6
2018-10-21T08:10:34.715Z,49.6
2018-10-21T08:11:47.029Z,49.6
2018-10-21T08:12:59.113Z,49.6
2018-10-21T08:14:11.370Z,49.6
2018-10-21T08:15:23.760Z,49.7
2018-10-21T08:16:35.685Z,49.7
2018-10-21T08:17:47.962Z,49.7
2018-10-21T08:19:00.151Z,49.7
2018-10-21T08:20:12.348Z,49.7
2018-10-21T08:21:24.541Z,49.7
2018-10-21T08:22:36.758Z,49.7
2018-10-21T08:23:48.865Z,49.7
2018-10-21T08:25:01.057Z,49.6
2018-10-21T08:26:13.322Z,49.6
2018-10-21T08:27:25.549Z,49.6
2018-10-21T08:28:37.712Z,49.5
2018-10-21T08:29:49.839Z,49.5
2018-10-21T08:31:02.133Z,49.5
2018-10-21T08:32:14.398Z,49.5
2018-10-21T08:33:26.503Z,49.5
2018-10-21T08:34:38.701Z,49.5
2018-10-21T08:35:50.820Z,49.4
2018-10-21T08:37:03.086Z,49.4
2018-10-21T08:38:15.276Z,49.4
2018-10-21T08:39:27.404Z,49.4
2018-10-21T08:40:39.667Z,49.3
2018-10-21T08:41:51.874Z,49.3
2018-10-21T08:43:03.984Z,49.3
2018-10-21T08:44:16.278Z,49.3
2018-10-21T08:45:28.485Z,49.3
2018-10-21T08:46:40.669Z,49.2
2018-10-21T08:47:52.838Z,49.2
2018-10-21T08:49:04.969Z,49.2
2018-10-21T08:50:17.247Z,49.2
2018-10-21T08:51:29.431Z,49.1
2018-10-21T08:52:41.550Z,49.1
2018-10-21T08:53:53.821Z,49.1
2018-10-21T08:55:06.029Z,49.1
2018-10-21T08:56:18.146Z,49
2018-10-21T08:57:30.456Z,49
2018-10-21T08:58:42.529Z,49
2018-10-21T08:59:54.811Z,49
2018-10-21T09:01:07.008Z,49
2018-10-21T09:02:19.111Z,49
2018-10-21T09:03:31.485Z,48.9
2018-10-21T09:04:43.637Z,48.9
2018-10-21T09:05:55.908Z,48.9
2018-10-21T09:07:07.971Z,48.9
2018-10-21T09:08:20.094Z,48.9
2018-10-21T09:09:32.366Z,48.9
2018-10-21T09:10:44.487Z,48.8
2018-10-21T09:11:56.673Z,48.8
2018-10-21T09:13:08.947Z,48.8
2018-10-21T09:14:21.141Z,48.8
2018-10-21T09:15:33.270Z,48.8
2018-10-21T09:16:45.534Z,48.6
2018-10-21T09:17:57.735Z,48.6
2018-10-21T09:19:09.935Z,48.6
2018-10-21T09:20:22.127Z,48.6
2018-10-21T09:21:34.321Z,48.6
2018-10-21T09:22:46.508Z,48.6
2018-10-21T09:23:58.728Z,48.6
2018-10-21T09:25:10.840Z,48.5
2018-10-21T09:26:23.102Z,48.5
2018-10-21T09:27:35.292Z,48.5
2018-10-21T09:28:47.500Z,48.5
2018-10-21T09:29:59.614Z,48.5
2018-10-21T09:31:11.811Z,48.5
2018-10-21T09:32:24.003Z,48.5
2018-10-21T09:33:36.274Z,48.5
2018-10-21T09:34:48.481Z,48.5
2018-10-21T09:36:00.728Z,48.5
2018-10-21T09:37:12.859Z,48.5
2018-10-21T09:38:25.065Z,48.5
2018-10-21T09:39:37.257Z,48.5
2018-10-21T09:40:49.466Z,48.5
2018-10-21T09:42:01.651Z,48.4
2018-10-21T09:43:13.843Z,48.4
2018-10-21T09:44:26.042Z,48.4
2018-10-21T09:45:38.162Z,48.4
2018-10-21T09:46:50.359Z,48.4
2018-10-21T09:48:02.621Z,48.4
2018-10-21T09:50:27.049Z,48.4
2018-10-21T09:51:39.220Z,48.2
2018-10-21T09:52:51.419Z,48.2
2018-10-21T09:54:03.666Z,48.2
2018-10-21T09:55:15.740Z,48.2
2018-10-21T09:56:27.983Z,48.2
2018-10-21T09:57:40.293Z,48.2
2018-10-21T09:58:52.406Z,48.2
2018-10-21T10:00:04.624Z,48.2
2018-10-21T10:01:16.694Z,48.1
2018-10-21T10:02:29.028Z,48.1
2018-10-21T10:03:41.156Z,48.1
2018-10-21T10:04:53.288Z,48.1
2018-10-21T10:06:05.476Z,48.1
2018-10-21T10:07:17.757Z,48.1
2018-10-21T10:08:29.865Z,48.1
2018-10-21T10:09:42.179Z,48.1
2018-10-21T10:10:54.326Z,48.1
2018-10-21T10:12:06.529Z,48.1
2018-10-21T10:13:18.722Z,48.1
2018-10-21T10:14:30.921Z,48.1
2018-10-21T10:15:43.125Z,48.1
2018-10-21T10:16:55.272Z,48.1
2018-10-21T10:18:07.511Z,48.1
2018-10-21T10:19:19.627Z,48.1
2018-10-21T10:20:31.929Z,48.1
2018-10-21T10:21:44.020Z,48.1
2018-10-21T10:22:56.242Z,48
2018-10-21T10:24:08.409Z,48
2018-10-21T10:25:20.684Z,48
2018-10-21T10:26:32.876Z,48.1
2018-10-21T10:27:45.213Z,48
2018-10-21T10:28:57.263Z,48.1
2018-10-21T10:30:09.382Z,48.1
2018-10-21T10:31:21.590Z,48
2018-10-21T10:32:33.856Z,48
2018-10-21T10:33:46.146Z,48.1
2018-10-21T10:34:58.165Z,48.1
2018-10-21T10:36:10.439Z,48.1
2018-10-21T10:37:22.626Z,48
2018-10-21T10:38:34.862Z,48
2018-10-21T10:39:47.019Z,48.1
2018-10-21T10:40:59.219Z,48.1
2018-10-21T10:42:11.337Z,48.1
2018-10-21T10:43:23.538Z,48.1
2018-10-21T10:44:35.800Z,48.1
2018-10-21T10:45:48.022Z,48.1
2018-10-21T10:47:00.195Z,48.2
2018-10-21T10:48:12.327Z,48.2
2018-10-21T10:49:24.592Z,48.2
2018-10-21T10:50:36.714Z,48.2
2018-10-21T10:51:48.911Z,48.2
2018-10-21T10:53:01.102Z,48.2
2018-10-21T10:54:13.302Z,48.2
2018-10-21T10:55:25.493Z,48.3
2018-10-21T10:56:37.764Z,48.3
2018-10-21T10:57:49.881Z,48.3
2018-10-21T10:59:02.155Z,48.3
2018-10-21T11:00:14.348Z,48.3
2018-10-21T11:01:26.551Z,48.3
2018-10-21T11:02:38.665Z,48.4
2018-10-21T11:03:50.942Z,48.3
2018-10-21T11:05:03.057Z,48.4
2018-10-21T11:06:15.331Z,48.4
2018-10-21T11:07:27.599Z,48.4
2018-10-21T11:08:39.873Z,48.4
2018-10-21T11:09:51.877Z,48.4
2018-10-21T11:11:04.112Z,48.4
2018-10-21T11:12:16.309Z,48.5
2018-10-21T11:13:28.426Z,48.5
2018-10-21T11:14:40.648Z,48.4
2018-10-21T11:15:52.817Z,48.5
2018-10-21T11:17:05.093Z,48.5
2018-10-21T11:18:17.282Z,48.5
2018-10-21T11:19:29.541Z,48.5
2018-10-21T11:20:41.675Z,48.5
2018-10-21T11:21:53.798Z,48.5
2018-10-21T11:23:05.997Z,48.5
2018-10-21T11:24:18.340Z,48.6
2018-10-21T11:25:30.443Z,48.6
2018-10-21T11:26:42.658Z,48.6
2018-10-21T11:27:54.777Z,48.6
2018-10-21T11:29:06.960Z,48.6
2018-10-21T11:30:19.238Z,48.6
2018-10-21T11:31:31.419Z,48.6
2018-10-21T11:32:43.613Z,48.6
2018-10-21T11:33:55.838Z,48.7
2018-10-21T11:35:08.137Z,48.7
2018-10-21T11:36:20.190Z,48.7
2018-10-21T11:37:32.384Z,48.7
2018-10-21T11:38:44.579Z,48.7
2018-10-21T11:39:56.787Z,48.7
2018-10-21T11:41:08.960Z,48.7
2018-10-21T11:42:21.176Z,48.7
2018-10-21T11:43:33.279Z,48.8
2018-10-21T11:44:45.549Z,48.8
2018-10-21T11:45:57.755Z,48.8
2018-10-21T11:47:09.864Z,48.8
2018-10-21T11:48:22.126Z,48.8
2018-10-21T11:49:34.314Z,48.8
2018-10-21T11:50:46.513Z,48.9
2018-10-21T11:51:58.632Z,48.9
2018-10-21T11:53:10.895Z,48.9
2018-10-21T11:54:23.026Z,48.9
2018-10-21T11:55:35.290Z,48.9
2018-10-21T11:56:47.476Z,48.9
2018-10-21T11:57:59.624Z,48.9
2018-10-21T11:59:11.883Z,48.9
2018-10-21T12:00:24.056Z,49
2018-10-21T12:01:36.252Z,49
2018-10-21T12:02:48.460Z,49
2018-10-21T12:04:00.609Z,49
2018-10-21T12:05:12.831Z,49
2018-10-21T12:06:25.042Z,49
2018-10-21T12:07:37.151Z,49
2018-10-21T12:08:49.340Z,49.1
2018-10-21T12:10:01.622Z,49.1
2018-10-21T12:11:13.800Z,49.1
2018-10-21T12:12:25.921Z,49.1
2018-10-21T12:13:38.226Z,49.1
2018-10-21T12:14:50.391Z,49.1
2018-10-21T12:16:02.601Z,49.2
2018-10-21T12:17:14.697Z,49.2
2018-10-21T12:18:27.022Z,49.2
2018-10-21T12:19:39.090Z,49.2
2018-10-21T12:20:51.351Z,49.2
2018-10-21T12:22:03.549Z,49.2
2018-10-21T12:23:15.746Z,49.2
2018-10-21T12:24:27.855Z,49.3
2018-10-21T12:25:40.058Z,49.3
2018-10-21T12:26:52.302Z,49.3
2018-10-21T12:28:04.510Z,49.3
2018-10-21T12:29:16.711Z,49.3
2018-10-21T12:30:29.071Z,49.3
2018-10-21T12:31:41.024Z,49.3
2018-10-21T12:32:54.090Z,49.4
2018-10-21T12:34:05.457Z,49.3
2018-10-21T12:35:17.680Z,49.4
2018-10-21T12:36:29.906Z,49.4
2018-10-21T12:37:42.067Z,49.4
2018-10-21T12:38:54.252Z,49.4
2018-10-21T12:40:06.370Z,49.4
2018-10-21T12:41:18.614Z,49.5
2018-10-21T12:42:30.836Z,49.5
2018-10-21T12:43:43.030Z,49.5
2018-10-21T12:44:55.242Z,49.5
2018-10-21T12:46:07.447Z,49.5
2018-10-21T12:47:19.612Z,49.5
2018-10-21T12:48:31.835Z,49.5
2018-10-21T12:49:43.924Z,49.5
2018-10-21T12:50:56.201Z,49.5
2018-10-21T12:52:08.389Z,49.5
2018-10-21T12:53:20.506Z,49.6
2018-10-21T12:54:32.716Z,49.6
2018-10-21T12:55:44.986Z,49.6
2018-10-21T12:56:57.096Z,49.6
2018-10-21T12:58:09.364Z,49.6
2018-10-21T12:59:21.483Z,49.6
2018-10-21T13:00:33.783Z,49.6
2018-10-21T13:01:45.880Z,49.6
2018-10-21T13:02:58.057Z,49.6
2018-10-21T13:04:10.323Z,49.6
2018-10-21T13:05:22.525Z,49.6
2018-10-21T13:06:34.724Z,49.6
2018-10-21T13:07:46.853Z,49.6
2018-10-21T13:08:59.103Z,49.6
2018-10-21T13:10:11.305Z,49.6
2018-10-21T13:11:23.489Z,49.7
2018-10-21T13:12:35.695Z,49.7
2018-10-21T13:13:47.889Z,49.6
2018-10-21T13:15:00.339Z,49.7
2018-10-21T13:16:12.277Z,49.7
2018-10-21T13:17:24.471Z,49.7
2018-10-21T13:18:36.649Z,49.6
2018-10-21T13:19:48.783Z,49.7
2018-10-21T13:21:01.050Z,49.7
2018-10-21T13:22:13.233Z,49.7
2018-10-21T13:23:25.426Z,49.6
2018-10-21T13:24:37.621Z,49.7
2018-10-21T13:25:49.815Z,49.6
2018-10-21T13:27:02.080Z,49.7
2018-10-21T13:28:14.327Z,49.7
2018-10-21T13:29:26.395Z,49.7
2018-10-21T13:30:38.536Z,49.7
2018-10-21T13:31:50.719Z,49.7
2018-10-21T13:33:02.972Z,49.7
2018-10-21T13:34:16.089Z,49.7
2018-10-21T13:35:27.389Z,49.7
2018-10-21T13:36:39.479Z,49.7
2018-10-21T13:37:51.811Z,49.7
2018-10-21T13:39:03.943Z,49.7
2018-10-21T13:40:16.137Z,49.6
2018-10-21T13:41:28.413Z,49.7
2018-10-21T13:42:40.454Z,49.7
2018-10-21T13:43:55.933Z,49.7
2018-10-21T13:45:04.916Z,49.7
2018-10-21T13:46:17.127Z,49.7
2018-10-21T13:47:29.299Z,49.7
2018-10-21T13:48:41.532Z,49.7
2018-10-21T13:49:53.695Z,49.7
2018-10-21T13:51:05.805Z,49.7
2018-10-21T13:52:18.009Z,49.7
2018-10-21T13:53:30.274Z,49.7
2018-10-21T13:54:42.469Z,49.7
2018-10-21T13:55:54.660Z,49.7
2018-10-21T13:57:06.783Z,49.7
2018-10-21T13:58:19.056Z,49.7
2018-10-21T13:59:31.260Z,49.7
2018-10-21T14:00:43.436Z,49.7
2018-10-21T14:01:55.626Z,49.7
2018-10-21T14:03:07.751Z,49.7
2018-10-21T14:04:19.942Z,49.7
2018-10-21T14:05:32.164Z,49.7
2018-10-21T14:06:44.458Z,49.7
2018-10-21T14:07:56.595Z,49.7
2018-10-21T14:09:08.813Z,49.7
2018-10-21T14:10:20.914Z,49.7
2018-10-21T14:11:33.178Z,49.7
2018-10-21T14:12:45.376Z,49.7
2018-10-21T14:13:57.568Z,49.7
2018-10-21T14:15:09.759Z,49.7
2018-10-21T14:16:21.902Z,49.7
2018-10-21T14:17:34.153Z,49.7
2018-10-21T14:18:46.342Z,49.7
2018-10-21T14:19:58.543Z,49.7
2018-10-21T14:21:10.742Z,49.7
2018-10-21T14:22:22.921Z,49.7
2018-10-21T14:23:35.138Z,49.7
2018-10-21T14:24:47.354Z,49.7
2018-10-21T14:25:59.503Z,49.7
2018-10-21T14:27:14.732Z,49.7
2018-10-21T14:28:23.891Z,49.7
2018-10-21T14:29:36.102Z,49.7
2018-10-21T14:30:48.292Z,49.7
2018-10-21T14:32:00.401Z,49.7
2018-10-21T14:33:12.598Z,49.7
2018-10-21T14:34:24.792Z,49.7
2018-10-21T14:35:36.983Z,49.7
2018-10-21T14:36:49.177Z,49.7
2018-10-21T14:38:01.447Z,49.7
2018-10-21T14:39:13.643Z,49.7
2018-10-21T14:40:25.796Z,49.7
2018-10-21T14:41:38.087Z,49.7
2018-10-21T14:42:50.292Z,49.7
2018-10-21T14:44:02.419Z,49.7
2018-10-21T14:45:14.706Z,49.7
2018-10-21T14:46:26.764Z,49.7
2018-10-21T14:47:39.011Z,49.7
2018-10-21T14:48:51.210Z,49.7
2018-10-21T14:50:03.383Z,49.7
2018-10-21T14:51:15.579Z,49.7
2018-10-21T14:52:27.789Z,49.7
2018-10-21T14:53:39.903Z,49.7
2018-10-21T14:54:52.161Z,49.7
2018-10-21T14:56:04.368Z,49.7
2018-10-21T14:57:16.485Z,49.7
2018-10-21T14:58:28.746Z,49.7
2018-10-21T14:59:40.966Z,49.7
2018-10-21T15:00:53.054Z,49.7
2018-10-21T15:02:05.340Z,49.7
2018-10-21T15:03:17.458Z,49.7
2018-10-21T15:04:29.708Z,49.7
2018-10-21T15:05:41.924Z,49.7
2018-10-21T15:06:54.098Z,49.7
2018-10-21T15:08:06.223Z,49.7
2018-10-21T15:09:18.495Z,49.7
2018-10-21T15:10:30.671Z,49.7
2018-10-21T15:11:42.947Z,49.7
2018-10-21T15:12:55.061Z,49.7
2018-10-21T15:14:07.186Z,49.7
2018-10-21T15:15:19.453Z,49.7
2018-10-21T15:16:31.568Z,49.7
2018-10-21T15:17:43.840Z,49.7
2018-10-21T15:18:56.034Z,49.7
2018-10-21T15:20:08.267Z,49.7
2018-10-21T15:21:20.430Z,49.7
2018-10-21T15:22:32.616Z,49.7
2018-10-21T15:23:44.804Z,49.8
2018-10-21T15:24:56.933Z,49.7
2018-10-21T15:26:09.195Z,49.7
2018-10-21T15:27:21.387Z,49.8
2018-10-21T15:28:33.585Z,49.7
2018-10-21T15:29:45.841Z,49.8
2018-10-21T15:30:57.896Z,49.7
2018-10-21T15:32:10.168Z,49.7
2018-10-21T15:34:34.549Z,49.7
2018-10-21T15:35:46.844Z,49.7
2018-10-21T15:36:58.865Z,49.7
2018-10-21T15:38:11.152Z,49.7
2018-10-21T15:39:23.258Z,49.7
2018-10-21T15:40:35.582Z,49.8
2018-10-21T15:41:47.711Z,49.7
2018-10-21T15:42:59.839Z,49.7
2018-10-21T15:44:12.109Z,49.7
2018-10-21T15:45:24.296Z,49.7
2018-10-21T15:46:36.492Z,49.7
2018-10-21T15:47:48.686Z,49.7
2018-10-21T15:49:00.824Z,49.7
2018-10-21T15:50:13.079Z,49.8
2018-10-21T15:51:25.192Z,49.7
2018-10-21T15:52:37.459Z,49.7
2018-10-21T15:53:49.671Z,49.7
2018-10-21T15:55:01.803Z,49.7
2018-10-21T15:56:14.048Z,49.7
2018-10-21T15:57:26.337Z,49.7
2018-10-21T15:58:38.428Z,49.7
2018-10-21T15:59:50.617Z,49.7
2018-10-21T16:01:02.747Z,49.7
2018-10-21T16:02:15.098Z,49.7
2018-10-21T16:03:27.137Z,49.7
2018-10-21T16:04:40.015Z,49.7
2018-10-21T16:05:51.611Z,49.7
2018-10-21T16:07:03.833Z,49.7
2018-10-21T16:08:15.981Z,49.7
2018-10-21T16:09:28.174Z,49.7
2018-10-21T16:10:40.367Z,49.8
2018-10-21T16:11:52.551Z,49.7
2018-10-21T16:13:04.682Z,49.7
2018-10-21T16:14:16.920Z,49.7
2018-10-21T16:15:29.170Z,49.8
2018-10-21T16:16:41.340Z,49.7
2018-10-21T16:17:53.526Z,49.8
2018-10-21T16:19:05.760Z,49.8
2018-10-21T16:20:17.920Z,49.8
2018-10-21T16:21:30.155Z,49.8